createdAt,value
2022-10-23T00:01:43.789Z,2.07
2022-10-23T00:04:21.266Z,2.57
2022-10-23T00:06:49.344Z,2.90
2022-10-23T00:09:21.575Z,2.27
2022-10-23T00:11:51.125Z,2.10
2022-10-23T00:14:22.583Z,2.07
2022-10-23T00:16:50.197Z,1.87
2022-10-23T00:19:17.535Z,2.10
2022-10-23T00:21:44.915Z,2.10
2022-10-23T00:24:12.743Z,2.30
2022-10-23T00:26:40.875Z,2.20
2022-10-23T00:29:09.624Z,1.80
2022-10-23T00:31:37.783Z,2.00
2022-10-23T00:34:08.241Z,1.77
2022-10-23T00:36:36.158Z,1.77
2022-10-23T00:39:03.945Z,1.93
2022-10-23T00:41:32.745Z,1.93
2022-10-23T00:44:31.895Z,2.10
2022-10-23T00:46:59.785Z,1.60
2022-10-23T00:49:28.333Z,1.50
2022-10-23T00:52:04.443Z,1.60
2022-10-23T00:54:41.464Z,1.80
2022-10-23T00:57:13.850Z,1.70
2022-10-23T00:59:41.563Z,1.93
2022-10-23T01:02:08.990Z,1.80
2022-10-23T01:04:37.518Z,1.87
2022-10-23T01:07:10.389Z,2.17
2022-10-23T01:09:53.895Z,2.00
2022-10-23T01:12:26.513Z,2.00
2022-10-23T01:15:16.863Z,1.83
2022-10-23T01:17:57.103Z,2.00
2022-10-23T01:20:44.476Z,1.90
2022-10-23T01:23:48.099Z,2.40
2022-10-23T01:26:44.271Z,1.80
2022-10-23T01:29:30.673Z,2.37
2022-10-23T01:32:24.290Z,2.13
2022-10-23T01:35:07.588Z,2.10
2022-10-23T01:37:45.304Z,2.13
2022-10-23T01:40:30.278Z,2.33
2022-10-23T01:43:25.790Z,2.40
2022-10-23T01:46:00.261Z,2.13
2022-10-23T01:48:30.980Z,2.20
2022-10-23T01:51:03.368Z,1.73
2022-10-23T01:53:38.476Z,1.90
2022-10-23T01:56:11.893Z,1.50
2022-10-23T01:58:44.361Z,2.20
2022-10-23T02:01:13.634Z,1.40
2022-10-23T02:03:50.008Z,2.00
2022-10-23T02:06:18.160Z,1.80
2022-10-23T02:08:46.105Z,1.63
2022-10-23T02:11:21.027Z,2.07
2022-10-23T02:14:53.286Z,2.27
2022-10-23T02:17:50.964Z,1.53
2022-10-23T02:20:25.040Z,2.63
2022-10-23T02:23:10.421Z,1.43
2022-10-23T02:25:47.876Z,2.10
2022-10-23T02:28:19.943Z,1.70
2022-10-23T02:30:50.518Z,1.40
2022-10-23T02:33:18.819Z,1.57
2022-10-23T02:35:47.440Z,1.37
2022-10-23T02:38:52.066Z,1.63
2022-10-23T02:41:34.318Z,2.40
2022-10-23T02:44:20.006Z,1.53
2022-10-23T02:46:57.661Z,1.80
2022-10-23T02:49:50.417Z,3.07
2022-10-23T02:52:54.888Z,3.37
2022-10-23T02:56:21.938Z,2.73
2022-10-23T02:59:10.818Z,3.00
2022-10-23T03:01:53.376Z,2.57
2022-10-23T03:04:25.929Z,2.33
2022-10-23T03:06:54.048Z,2.57
2022-10-23T03:09:21.129Z,3.00
2022-10-23T03:11:48.173Z,3.90
2022-10-23T03:14:16.176Z,2.87
2022-10-23T03:16:43.146Z,2.93
2022-10-23T03:21:44.260Z,2.93
2022-10-23T03:24:11.360Z,4.00
2022-10-23T03:26:42.386Z,3.83
2022-10-23T03:29:10.260Z,4.30
2022-10-23T03:31:42.662Z,4.70
2022-10-23T03:34:11.402Z,4.67
2022-10-23T03:36:40.752Z,5.20
2022-10-23T03:39:10.146Z,4.50
2022-10-23T03:41:37.421Z,5.23
2022-10-23T03:46:36.505Z,6.40
2022-10-23T03:49:04.462Z,5.00
2022-10-23T03:51:31.822Z,5.30
2022-10-23T03:53:58.919Z,6.57
2022-10-23T03:56:25.964Z,4.20
2022-10-23T03:58:53.425Z,4.03
2022-10-23T04:01:24.527Z,3.37
2022-10-23T04:03:52.200Z,3.43
2022-10-23T04:06:19.177Z,3.03
2022-10-23T04:08:46.183Z,3.53
2022-10-23T04:11:16.114Z,3.30
2022-10-23T04:13:45.942Z,2.43
2022-10-23T04:16:13.265Z,2.30
2022-10-23T04:18:43.404Z,2.07
2022-10-23T04:21:11.040Z,1.80
2022-10-23T04:23:39.116Z,1.87
2022-10-23T04:26:11.698Z,1.80
2022-10-23T04:28:39.077Z,1.40
2022-10-23T04:31:06.455Z,1.63
2022-10-23T04:33:33.853Z,1.37
2022-10-23T04:36:00.926Z,1.53
2022-10-23T04:38:28.056Z,1.13
2022-10-23T04:40:55.152Z,1.57
2022-10-23T04:43:23.277Z,4.13
2022-10-23T04:45:50.633Z,1.47
2022-10-23T04:48:18.044Z,1.50
2022-10-23T04:51:14.398Z,1.13
2022-10-23T04:53:59.703Z,1.73
2022-10-23T04:56:44.481Z,1.60
2022-10-23T04:59:15.853Z,2.00
2022-10-23T05:01:43.243Z,1.57
2022-10-23T05:04:10.608Z,1.47
2022-10-23T05:06:56.409Z,2.03
2022-10-23T05:09:42.768Z,1.40
2022-10-23T05:12:36.417Z,1.97
2022-10-23T05:15:04.697Z,1.87
2022-10-23T05:17:37.769Z,1.67
2022-10-23T05:20:12.806Z,2.00
2022-10-23T05:22:42.823Z,3.23
2022-10-23T05:25:13.423Z,2.10
2022-10-23T05:27:45.751Z,1.87
2022-10-23T05:30:14.561Z,1.67
2022-10-23T05:32:42.215Z,1.70
2022-10-23T05:35:23.355Z,2.27
2022-10-23T05:37:53.972Z,1.50
2022-10-23T05:40:24.259Z,1.97
2022-10-23T05:42:57.073Z,1.80
2022-10-23T05:45:37.570Z,2.50
2022-10-23T05:48:34.250Z,2.20
2022-10-23T05:51:23.008Z,2.40
2022-10-23T05:54:10.266Z,2.90
2022-10-23T05:56:53.435Z,2.80
2022-10-23T05:59:23.495Z,3.17
2022-10-23T06:02:00.531Z,2.50
2022-10-23T06:04:48.647Z,2.60
2022-10-23T06:07:35.919Z,2.13
2022-10-23T06:10:06.764Z,2.70
2022-10-23T06:12:38.032Z,2.20
2022-10-23T06:15:06.093Z,2.23
2022-10-23T06:17:51.825Z,2.27
2022-10-23T06:20:18.919Z,2.20
2022-10-23T06:22:54.797Z,1.90
2022-10-23T06:25:40.117Z,1.90
2022-10-23T06:28:07.961Z,1.93
2022-10-23T06:30:39.613Z,2.77
2022-10-23T06:33:06.845Z,2.33
2022-10-23T06:35:34.016Z,2.00
2022-10-23T06:38:01.381Z,2.67
2022-10-23T06:40:38.412Z,2.30
2022-10-23T06:43:08.727Z,2.10
2022-10-23T06:45:54.534Z,3.70
2022-10-23T06:48:42.881Z,3.30
2022-10-23T06:51:17.886Z,3.47
2022-10-23T06:53:45.959Z,2.33
2022-10-23T06:56:35.178Z,2.93
2022-10-23T06:59:07.821Z,3.10
2022-10-23T07:01:36.050Z,4.00
2022-10-23T07:04:03.374Z,3.63
2022-10-23T07:06:30.843Z,3.30
2022-10-23T07:09:00.106Z,3.33
2022-10-23T07:11:45.650Z,2.93
2022-10-23T07:14:13.175Z,3.27
2022-10-23T07:16:40.228Z,3.83
2022-10-23T07:19:09.442Z,3.53
2022-10-23T07:21:56.634Z,5.70
2022-10-23T07:24:37.289Z,3.20
2022-10-23T07:27:11.713Z,3.67
2022-10-23T07:29:39.024Z,12.80
2022-10-23T07:32:06.488Z,3.63
2022-10-23T07:34:53.813Z,5.87
2022-10-23T07:37:30.588Z,4.70
2022-10-23T07:40:01.708Z,4.30
2022-10-23T07:42:29.684Z,5.67
2022-10-23T07:44:57.532Z,4.80
2022-10-23T07:47:25.019Z,4.70
2022-10-23T07:49:52.710Z,4.40
2022-10-23T07:52:20.591Z,4.60
2022-10-23T07:55:07.132Z,4.53
2022-10-23T07:57:39.526Z,4.63
2022-10-23T08:00:13.260Z,4.50
2022-10-23T08:02:53.694Z,8.10
2022-10-23T08:05:20.778Z,9.97
2022-10-23T08:07:54.809Z,4.67
2022-10-23T08:10:22.660Z,4.60
2022-10-23T08:12:49.778Z,3.60
2022-10-23T08:15:20.525Z,3.93
2022-10-23T08:17:56.022Z,4.30
2022-10-23T08:20:47.752Z,3.93
2022-10-23T08:23:18.605Z,3.60
2022-10-23T08:25:47.086Z,3.70
2022-10-23T08:28:16.575Z,3.67
2022-10-23T08:30:53.207Z,3.73
2022-10-23T08:33:20.630Z,3.40
2022-10-23T08:35:49.078Z,2.90
2022-10-23T08:38:24.210Z,3.57
2022-10-23T08:40:52.641Z,3.33
2022-10-23T08:43:46.896Z,3.00
2022-10-23T08:46:37.752Z,2.60
2022-10-23T08:49:57.197Z,2.97
2022-10-23T08:52:48.677Z,2.57
2022-10-23T08:55:41.425Z,2.50
2022-10-23T09:01:46.788Z,2.50
2022-10-23T09:04:15.212Z,2.50
2022-10-23T09:06:51.058Z,3.00
2022-10-23T09:09:45.937Z,2.80
2022-10-23T09:12:32.536Z,13.43
2022-10-23T09:15:19.879Z,2.90
2022-10-23T09:17:49.184Z,4.60
2022-10-23T09:20:34.598Z,3.67
2022-10-23T09:23:16.078Z,2.80
2022-10-23T09:25:44.604Z,2.47
2022-10-23T09:28:43.194Z,3.27
2022-10-23T09:31:12.761Z,3.00
2022-10-23T09:33:40.509Z,2.23
2022-10-23T09:36:20.671Z,2.77
2022-10-23T09:38:50.252Z,2.10
2022-10-23T09:41:29.975Z,2.97
2022-10-23T09:44:17.805Z,2.40
2022-10-23T09:46:53.908Z,2.80
2022-10-23T09:49:34.015Z,2.73
2022-10-23T09:52:08.280Z,2.57
2022-10-23T09:54:50.566Z,2.30
2022-10-23T09:57:40.865Z,2.40
2022-10-23T10:00:20.321Z,2.07
2022-10-23T10:03:03.775Z,2.37
2022-10-23T10:05:42.892Z,2.10
2022-10-23T10:08:35.299Z,2.10
2022-10-23T10:11:33.664Z,3.07
2022-10-23T10:14:30.904Z,2.33
2022-10-23T10:17:31.496Z,3.17
2022-10-23T10:20:41.868Z,2.47
2022-10-23T10:23:23.844Z,2.07
2022-10-23T10:26:17.638Z,2.50
2022-10-23T10:29:06.070Z,2.63
2022-10-23T10:32:06.019Z,2.10
2022-10-23T10:35:02.790Z,2.37
2022-10-23T10:37:36.495Z,2.57
2022-10-23T10:40:27.895Z,2.63
2022-10-23T10:43:31.241Z,2.00
2022-10-23T10:46:29.889Z,1.87
2022-10-23T10:49:48.428Z,2.43
2022-10-23T10:52:46.644Z,1.80
2022-10-23T10:55:40.867Z,2.57
2022-10-23T10:58:50.483Z,1.50
2022-10-23T11:01:28.423Z,1.70
2022-10-23T11:04:32.904Z,1.63
2022-10-23T11:07:07.711Z,1.80
2022-10-23T11:09:34.660Z,1.40
2022-10-23T11:12:01.542Z,1.30
2022-10-23T11:14:33.302Z,1.80
2022-10-23T11:17:18.656Z,1.67
2022-10-23T11:20:28.868Z,1.37
2022-10-23T11:23:24.741Z,1.43
2022-10-23T11:26:36.524Z,1.40
2022-10-23T11:29:16.421Z,1.80
2022-10-23T11:32:05.351Z,1.23
2022-10-23T11:34:46.846Z,1.73
2022-10-23T11:37:19.434Z,1.37
2022-10-23T11:40:03.698Z,1.30
2022-10-23T11:42:51.969Z,1.93
2022-10-23T11:45:30.098Z,1.10
2022-10-23T11:48:17.567Z,1.17
2022-10-23T11:50:44.423Z,1.40
2022-10-23T11:53:31.499Z,1.60
2022-10-23T11:56:13.403Z,1.13
2022-10-23T11:58:57.819Z,3.23
2022-10-23T12:01:45.516Z,2.30
2022-10-23T12:04:12.704Z,2.10
2022-10-23T12:06:44.143Z,1.40
2022-10-23T12:09:44.925Z,1.67
2022-10-23T12:12:12.053Z,1.37
2022-10-23T12:15:14.474Z,1.00
2022-10-23T12:17:43.817Z,1.43
2022-10-23T12:20:14.021Z,1.23
2022-10-23T12:23:05.548Z,1.10
2022-10-23T12:26:22.220Z,1.47
2022-10-23T12:29:24.835Z,1.17
2022-10-23T12:32:16.076Z,1.00
2022-10-23T12:34:46.079Z,1.20
2022-10-23T12:37:55.209Z,1.40
2022-10-23T12:40:29.652Z,1.40
2022-10-23T12:43:00.898Z,1.30
2022-10-23T12:45:38.621Z,1.73
2022-10-23T12:48:06.243Z,1.80
2022-10-23T12:50:34.521Z,1.00
2022-10-23T12:53:06.720Z,1.30
2022-10-23T12:55:49.860Z,1.00
2022-10-23T12:58:35.820Z,1.30
2022-10-23T13:01:07.199Z,0.90
2022-10-23T13:03:35.388Z,0.90
2022-10-23T13:06:03.685Z,1.20
2022-10-23T13:08:44.450Z,1.17
2022-10-23T13:11:32.755Z,1.97
2022-10-23T13:14:12.951Z,1.10
2022-10-23T13:16:40.380Z,1.20
2022-10-23T13:19:22.281Z,1.30
2022-10-23T13:21:49.625Z,1.30
2022-10-23T13:24:21.738Z,1.70
2022-10-23T13:26:49.115Z,1.27
2022-10-23T13:29:36.293Z,1.10
2022-10-23T13:32:22.865Z,1.80
2022-10-23T13:35:10.250Z,1.50
2022-10-23T13:37:45.744Z,1.50
2022-10-23T13:40:27.782Z,1.10
2022-10-23T13:42:57.389Z,1.13
2022-10-23T13:45:26.320Z,1.13
2022-10-23T13:47:53.922Z,1.27
2022-10-23T13:50:20.930Z,0.87
2022-10-23T13:52:48.573Z,1.10
2022-10-23T13:55:26.268Z,1.33
2022-10-23T13:57:53.585Z,1.00
2022-10-23T14:00:20.572Z,1.47
2022-10-23T14:02:47.833Z,1.17
2022-10-23T14:05:14.876Z,1.00
2022-10-23T14:07:42.214Z,0.83
2022-10-23T14:10:09.394Z,1.30
2022-10-23T14:12:42.096Z,1.80
2022-10-23T14:15:11.217Z,1.00
2022-10-23T14:17:38.682Z,0.80
2022-10-23T14:20:06.838Z,0.97
2022-10-23T14:22:33.968Z,1.13
2022-10-23T14:25:00.868Z,1.20
2022-10-23T14:27:28.152Z,0.80
2022-10-23T14:29:56.017Z,0.90
2022-10-23T14:32:23.481Z,1.00
2022-10-23T14:34:53.407Z,1.23
2022-10-23T14:37:21.657Z,1.20
2022-10-23T14:39:50.131Z,1.20
2022-10-23T14:42:18.084Z,0.93
2022-10-23T14:44:45.247Z,0.70
2022-10-23T14:47:12.477Z,1.03
2022-10-23T14:49:40.263Z,1.30
2022-10-23T14:52:07.578Z,1.13
2022-10-23T14:54:36.393Z,1.00
2022-10-23T14:57:03.987Z,1.30
2022-10-23T14:59:31.152Z,1.40
2022-10-23T15:01:58.342Z,1.20
2022-10-23T15:04:25.522Z,1.43
2022-10-23T15:06:52.944Z,1.10
2022-10-23T15:09:20.238Z,1.20
2022-10-23T15:11:47.906Z,1.60
2022-10-23T15:14:14.931Z,1.50
2022-10-23T15:16:42.285Z,1.80
2022-10-23T15:19:15.461Z,1.73
2022-10-23T15:21:49.121Z,1.30
2022-10-23T15:24:17.652Z,1.63
2022-10-23T15:26:45.147Z,1.57
2022-10-23T15:29:14.372Z,1.77
2022-10-23T15:31:44.331Z,1.43
2022-10-23T15:34:21.765Z,1.37
2022-10-23T15:36:50.430Z,1.80
2022-10-23T15:39:24.225Z,1.77
2022-10-23T15:41:55.143Z,1.43
2022-10-23T15:44:25.655Z,1.17
2022-10-23T15:46:53.288Z,1.37
2022-10-23T15:49:20.539Z,1.60
2022-10-23T15:51:47.807Z,1.30
2022-10-23T15:54:18.916Z,1.37
2022-10-23T15:56:49.683Z,1.20
2022-10-23T15:59:18.154Z,1.57
2022-10-23T16:01:45.352Z,1.87
2022-10-23T16:04:12.550Z,1.53
2022-10-23T16:06:40.081Z,1.40
2022-10-23T16:09:06.996Z,1.53
2022-10-23T16:11:37.262Z,3.00
2022-10-23T16:14:05.718Z,1.20
2022-10-23T16:16:33.550Z,2.00
2022-10-23T16:19:03.862Z,4.33
2022-10-23T16:21:35.426Z,3.83
2022-10-23T16:24:05.307Z,2.67
2022-10-23T16:26:33.306Z,3.30
2022-10-23T16:29:04.388Z,3.83
2022-10-23T16:31:31.717Z,2.67
2022-10-23T16:34:00.974Z,2.60
2022-10-23T16:36:29.365Z,1.90
2022-10-23T16:39:19.009Z,2.10
2022-10-23T16:42:05.763Z,1.50
2022-10-23T16:44:57.294Z,1.80
2022-10-23T16:47:24.364Z,1.90
2022-10-23T16:49:51.289Z,2.20
2022-10-23T16:52:18.268Z,1.70
2022-10-23T16:54:45.246Z,1.90
2022-10-23T16:57:12.204Z,1.60
2022-10-23T16:59:39.170Z,1.23
2022-10-23T17:02:06.619Z,1.33
2022-10-23T17:04:33.749Z,1.80
2022-10-23T17:07:00.829Z,2.20
2022-10-23T17:09:31.147Z,1.90
2022-10-23T17:12:00.118Z,2.50
2022-10-23T17:14:30.077Z,1.50
2022-10-23T17:17:05.784Z,2.70
2022-10-23T17:19:44.567Z,1.97
2022-10-23T17:22:13.540Z,2.30
2022-10-23T17:24:42.534Z,1.90
2022-10-23T17:27:09.582Z,1.60
2022-10-23T17:29:36.540Z,2.27
2022-10-23T17:32:04.207Z,2.20
2022-10-23T17:34:31.219Z,2.17
2022-10-23T17:36:58.184Z,2.07
2022-10-23T17:39:28.687Z,2.63
2022-10-23T17:41:57.314Z,1.90
2022-10-23T17:44:24.712Z,3.40
2022-10-23T17:46:55.860Z,2.23
2022-10-23T17:49:24.341Z,1.43
2022-10-23T17:51:57.317Z,1.43
2022-10-23T17:54:26.604Z,1.80
2022-10-23T17:56:53.713Z,1.60
2022-10-23T17:59:20.710Z,1.90
2022-10-23T18:01:49.086Z,2.23
2022-10-23T18:04:19.491Z,1.80
2022-10-23T18:06:52.392Z,1.27
2022-10-23T18:09:21.294Z,1.00
2022-10-23T18:11:49.202Z,1.20
2022-10-23T18:14:20.150Z,2.03
2022-10-23T18:16:48.492Z,0.93
2022-10-23T18:19:19.129Z,1.40
2022-10-23T18:21:47.683Z,1.23
2022-10-23T18:24:15.449Z,1.37
2022-10-23T18:26:44.197Z,1.00
2022-10-23T18:29:12.958Z,2.50
2022-10-23T18:31:41.165Z,1.57
2022-10-23T18:34:21.733Z,1.60
2022-10-23T18:36:51.964Z,0.90
2022-10-23T18:39:22.852Z,0.70
2022-10-23T18:41:57.084Z,0.97
2022-10-23T18:44:27.317Z,0.83
2022-10-23T18:46:57.234Z,1.10
2022-10-23T18:49:24.520Z,1.00
2022-10-23T18:51:51.688Z,0.67
2022-10-23T18:54:21.251Z,0.70
2022-10-23T18:56:49.229Z,0.50
2022-10-23T18:59:20.020Z,0.80
2022-10-23T19:01:47.841Z,0.50
2022-10-23T19:04:17.760Z,1.47
2022-10-23T19:06:47.091Z,1.20
2022-10-23T19:09:14.884Z,1.10
2022-10-23T19:11:43.324Z,0.80
2022-10-23T19:14:10.381Z,1.00
2022-10-23T19:17:25.814Z,0.77
2022-10-23T19:19:59.587Z,0.80
2022-10-23T19:22:30.536Z,1.63
2022-10-23T19:25:05.133Z,0.80
2022-10-23T19:27:32.189Z,1.07
2022-10-23T19:30:03.319Z,0.70
2022-10-23T19:32:30.408Z,0.73
2022-10-23T19:34:58.915Z,1.00
2022-10-23T19:37:26.027Z,0.90
2022-10-23T19:39:53.065Z,0.93
2022-10-23T19:42:19.983Z,0.60
2022-10-23T19:44:47.030Z,1.20
2022-10-23T19:47:14.040Z,1.00
2022-10-23T19:49:41.034Z,0.83
2022-10-23T19:52:07.973Z,0.87
2022-10-23T19:54:36.020Z,0.83
2022-10-23T19:57:03.088Z,0.60
2022-10-23T19:59:30.152Z,0.90
2022-10-23T20:01:57.280Z,0.83
2022-10-23T20:04:24.521Z,0.70
2022-10-23T20:06:51.701Z,0.67
2022-10-23T20:09:18.754Z,0.70
2022-10-23T20:11:45.742Z,0.60
2022-10-23T20:14:12.874Z,0.90
2022-10-23T20:16:40.800Z,0.87
2022-10-23T20:19:10.249Z,0.93
2022-10-23T20:21:40.600Z,1.13
2022-10-23T20:24:08.991Z,0.70
2022-10-23T20:26:38.896Z,0.73
2022-10-23T20:29:06.197Z,0.60
2022-10-23T20:31:33.692Z,0.60
2022-10-23T20:34:00.601Z,1.00
2022-10-23T20:36:35.208Z,1.30
2022-10-23T20:39:07.453Z,1.50
2022-10-23T20:41:37.138Z,0.97
2022-10-23T20:44:10.725Z,0.93
2022-10-23T20:46:38.350Z,1.00
2022-10-23T20:49:05.338Z,1.10
2022-10-23T20:51:32.536Z,0.90
2022-10-23T20:53:59.551Z,1.40
2022-10-23T20:56:32.188Z,1.43
2022-10-23T20:59:14.461Z,1.03
2022-10-23T21:01:45.653Z,0.77
2022-10-23T21:04:14.122Z,1.70
2022-10-23T21:06:57.663Z,0.90
2022-10-23T21:09:31.667Z,1.00
2022-10-23T21:11:58.723Z,1.07
2022-10-23T21:14:25.621Z,1.23
2022-10-23T21:16:52.641Z,1.27
2022-10-23T21:19:19.718Z,1.17
2022-10-23T21:21:46.716Z,1.20
2022-10-23T21:24:17.619Z,1.10
2022-10-23T21:26:45.558Z,1.57
2022-10-23T21:29:21.002Z,1.13
2022-10-23T21:32:01.412Z,1.13
2022-10-23T21:34:29.410Z,1.17
2022-10-23T21:37:13.916Z,1.43
2022-10-23T21:39:43.658Z,1.63
2022-10-23T21:42:13.373Z,1.27
2022-10-23T21:44:40.643Z,1.07
2022-10-23T21:47:07.679Z,1.37
2022-10-23T21:49:34.925Z,1.90
2022-10-23T21:52:01.892Z,1.43
2022-10-23T21:54:28.978Z,1.50
2022-10-23T21:56:56.041Z,1.00
2022-10-23T21:59:28.844Z,1.27
2022-10-23T22:01:57.667Z,1.23
2022-10-23T22:04:24.668Z,1.77
2022-10-23T22:06:52.023Z,1.23
2022-10-23T22:09:21.657Z,1.50
2022-10-23T22:11:50.870Z,1.87
2022-10-23T22:14:18.302Z,1.70
2022-10-23T22:16:45.724Z,1.20
2022-10-23T22:19:15.914Z,1.73
2022-10-23T22:21:43.837Z,1.37
2022-10-23T22:24:11.133Z,1.50
2022-10-23T22:26:45.737Z,1.60
2022-10-23T22:29:16.507Z,1.50
2022-10-23T22:31:47.279Z,1.60
2022-10-23T22:34:47.864Z,1.70
2022-10-23T22:37:12.513Z,2.20
2022-10-23T22:39:40.208Z,2.47
2022-10-23T22:42:07.402Z,1.97
2022-10-23T22:44:34.681Z,1.30
2022-10-23T22:47:01.609Z,2.37
2022-10-23T22:49:28.649Z,2.03
2022-10-23T22:51:55.769Z,1.60
2022-10-23T22:54:22.773Z,1.77
2022-10-23T22:56:49.884Z,1.80
2022-10-23T22:59:16.899Z,2.40
2022-10-23T23:01:47.613Z,1.77
2022-10-23T23:04:37.688Z,2.00
2022-10-23T23:07:08.606Z,1.67
2022-10-23T23:09:41.208Z,1.70
2022-10-23T23:12:11.918Z,2.50
2022-10-23T23:14:39.453Z,2.50
2022-10-23T23:17:08.054Z,2.40
2022-10-23T23:19:35.429Z,2.40
2022-10-23T23:22:03.090Z,2.03
2022-10-23T23:24:30.458Z,1.57
2022-10-23T23:26:57.531Z,2.47
2022-10-23T23:29:25.038Z,1.63
2022-10-23T23:31:51.935Z,2.00
2022-10-23T23:34:19.032Z,1.90
2022-10-23T23:36:46.396Z,2.10
2022-10-23T23:39:13.346Z,2.63
2022-10-23T23:41:40.422Z,1.60
2022-10-23T23:44:08.370Z,1.90
2022-10-23T23:46:35.513Z,2.00
2022-10-23T23:49:02.417Z,2.20
2022-10-23T23:51:29.618Z,2.10
2022-10-23T23:53:56.609Z,1.83
2022-10-23T23:56:23.948Z,1.30
2022-10-23T23:58:51.231Z,3.10
